createdAt,value
2023-04-15T00:02:24.169Z,3.70
2023-04-15T00:04:54.833Z,4.85
2023-04-15T00:07:25.294Z,4.32
2023-04-15T00:09:57.882Z,4.95
2023-04-15T00:12:28.505Z,4.07
2023-04-15T00:15:01.683Z,4.05
2023-04-15T00:17:32.405Z,4.10
2023-04-15T00:20:03.828Z,3.22
2023-04-15T00:22:34.589Z,3.90
2023-04-15T00:25:05.078Z,4.55
2023-04-15T00:27:35.593Z,4.82
2023-04-15T00:30:10.795Z,5.88
2023-04-15T00:32:42.612Z,5.00
2023-04-15T00:35:13.160Z,5.40
2023-04-15T00:37:45.953Z,4.85
2023-04-15T00:40:20.804Z,5.20
2023-04-15T00:42:51.570Z,4.93
2023-04-15T00:45:24.838Z,5.22
2023-04-15T00:47:58.702Z,4.75
2023-04-15T00:50:29.166Z,5.32
2023-04-15T00:52:59.787Z,5.25
2023-04-15T00:55:30.273Z,4.75
2023-04-15T00:58:01.172Z,5.15
2023-04-15T01:00:34.790Z,4.72
2023-04-15T01:03:05.535Z,5.05
2023-04-15T01:05:37.059Z,4.97
2023-04-15T01:08:08.024Z,4.60
2023-04-15T01:10:38.991Z,4.47
2023-04-15T01:13:09.690Z,4.50
2023-04-15T01:15:43.753Z,4.57
2023-04-15T01:18:14.831Z,5.30
2023-04-15T01:20:45.360Z,4.75
2023-04-15T01:23:17.178Z,5.40
2023-04-15T01:25:50.861Z,4.50
2023-04-15T01:31:10.985Z,4.10
2023-04-15T01:33:42.635Z,4.10
2023-04-15T01:36:32.194Z,4.13
2023-04-15T01:39:02.889Z,3.80
2023-04-15T01:41:36.007Z,3.90
2023-04-15T01:44:08.409Z,3.65
2023-04-15T01:46:40.833Z,3.83
2023-04-15T01:49:12.800Z,3.65
2023-04-15T01:51:44.431Z,3.38
2023-04-15T01:54:17.990Z,4.45
2023-04-15T01:56:52.299Z,3.40
2023-04-15T01:59:24.065Z,4.45
2023-04-15T02:01:56.469Z,4.63
2023-04-15T02:04:28.215Z,4.57
2023-04-15T02:07:03.122Z,4.72
2023-04-15T02:12:11.890Z,5.15
2023-04-15T02:14:43.702Z,4.40
2023-04-15T02:17:15.818Z,4.40
2023-04-15T02:19:48.298Z,4.70
2023-04-15T02:22:20.653Z,4.82
2023-04-15T02:24:52.247Z,4.80
2023-04-15T02:27:26.593Z,4.53
2023-04-15T02:29:58.333Z,4.38
2023-04-15T02:32:29.941Z,4.85
2023-04-15T02:35:07.085Z,5.00
2023-04-15T02:37:45.935Z,5.20
2023-04-15T02:40:17.925Z,4.78
2023-04-15T02:42:53.144Z,4.45
2023-04-15T02:45:27.771Z,4.60
2023-04-15T02:47:59.479Z,4.43
2023-04-15T02:50:31.953Z,4.32
2023-04-15T02:53:04.545Z,4.38
2023-04-15T02:55:36.684Z,5.35
2023-04-15T02:58:11.252Z,4.57
2023-04-15T03:00:42.951Z,4.68
2023-04-15T03:03:15.516Z,4.75
2023-04-15T03:05:48.033Z,4.57
2023-04-15T03:08:19.696Z,4.72
2023-04-15T03:10:52.655Z,4.50
2023-04-15T03:13:26.999Z,4.47
2023-04-15T03:15:59.680Z,4.20
2023-04-15T03:18:32.317Z,4.22
2023-04-15T03:21:07.563Z,4.30
2023-04-15T03:23:41.718Z,4.00
2023-04-15T03:26:13.502Z,4.40
2023-04-15T03:28:48.143Z,4.18
2023-04-15T03:31:20.867Z,4.68
2023-04-15T03:33:52.949Z,4.40
2023-04-15T03:36:24.527Z,5.88
2023-04-15T03:38:56.452Z,6.00
2023-04-15T03:41:28.608Z,4.57
2023-04-15T03:44:02.961Z,3.50
2023-04-15T03:46:34.674Z,3.20
2023-04-15T03:49:06.554Z,3.53
2023-04-15T03:51:38.184Z,3.33
2023-04-15T03:54:09.882Z,3.20
2023-04-15T03:56:41.601Z,3.40
2023-04-15T03:59:15.924Z,3.30
2023-04-15T04:01:47.652Z,2.85
2023-04-15T04:04:19.658Z,4.10
2023-04-15T04:06:51.290Z,3.83
2023-04-15T04:09:22.995Z,4.07
2023-04-15T04:11:54.686Z,4.20
2023-04-15T04:14:29.998Z,4.55
2023-04-15T04:17:01.901Z,4.90
2023-04-15T04:19:33.901Z,15.07
2023-04-15T04:22:05.655Z,7.05
2023-04-15T04:24:37.418Z,4.60
2023-04-15T04:27:09.245Z,4.80
2023-04-15T04:29:43.661Z,4.95
2023-04-15T04:32:15.830Z,4.30
2023-04-15T04:34:48.368Z,4.93
2023-04-15T04:37:20.007Z,5.10
2023-04-15T04:39:51.782Z,5.75
2023-04-15T04:42:23.361Z,23.30
2023-04-15T04:44:57.656Z,17.20
2023-04-15T04:47:30.298Z,4.55
2023-04-15T04:50:01.910Z,4.38
2023-04-15T04:52:33.523Z,4.25
2023-04-15T04:55:05.252Z,5.15
2023-04-15T04:57:37.888Z,5.00
2023-04-15T05:00:14.311Z,5.35
2023-04-15T05:02:46.284Z,4.57
2023-04-15T05:05:18.046Z,4.75
2023-04-15T05:07:50.748Z,5.03
2023-04-15T05:10:22.353Z,5.18
2023-04-15T05:12:54.055Z,5.05
2023-04-15T05:15:28.560Z,4.75
2023-04-15T05:18:00.314Z,4.43
2023-04-15T05:20:32.169Z,5.07
2023-04-15T05:23:03.829Z,5.03
2023-04-15T05:25:35.531Z,5.15
2023-04-15T05:28:07.182Z,4.78
2023-04-15T05:30:42.238Z,4.65
2023-04-15T05:33:13.979Z,4.55
2023-04-15T05:35:45.713Z,5.07
2023-04-15T05:38:17.308Z,5.07
2023-04-15T05:40:48.899Z,5.00
2023-04-15T05:43:22.730Z,4.70
2023-04-15T05:45:57.271Z,5.50
2023-04-15T05:48:29.075Z,5.07
2023-04-15T05:51:01.019Z,4.60
2023-04-15T05:53:32.879Z,4.60
2023-04-15T05:56:04.439Z,5.00
2023-04-15T05:58:36.285Z,4.85
2023-04-15T06:01:10.855Z,4.50
2023-04-15T06:03:42.816Z,4.78
2023-04-15T06:06:14.741Z,3.95
2023-04-15T06:08:46.438Z,3.97
2023-04-15T06:11:18.519Z,4.45
2023-04-15T06:13:50.280Z,4.13
2023-04-15T06:16:24.555Z,4.72
2023-04-15T06:18:56.295Z,4.70
2023-04-15T06:21:28.111Z,4.15
2023-04-15T06:23:59.840Z,4.60
2023-04-15T06:26:31.830Z,4.28
2023-04-15T06:29:04.001Z,4.35
2023-04-15T06:31:38.412Z,3.78
2023-04-15T06:34:10.069Z,6.20
2023-04-15T06:36:41.634Z,6.43
2023-04-15T06:39:13.707Z,5.47
2023-04-15T06:41:45.504Z,5.85
2023-04-15T06:44:17.396Z,5.43
2023-04-15T06:46:51.662Z,4.63
2023-04-15T06:49:23.268Z,5.15
2023-04-15T06:51:54.938Z,4.05
2023-04-15T06:54:26.744Z,4.70
2023-04-15T06:56:58.462Z,4.57
2023-04-15T06:59:30.169Z,5.28
2023-04-15T07:02:05.151Z,5.15
2023-04-15T07:07:08.297Z,4.38
2023-04-15T07:09:39.901Z,4.03
2023-04-15T07:12:11.753Z,4.78
2023-04-15T07:14:43.580Z,4.43
2023-04-15T07:17:18.014Z,4.28
2023-04-15T07:19:49.691Z,4.75
2023-04-15T07:22:21.598Z,17.02
2023-04-15T07:24:53.163Z,9.65
2023-04-15T07:27:25.020Z,4.00
2023-04-15T07:29:56.607Z,3.90
2023-04-15T07:32:31.278Z,4.18
2023-04-15T07:35:03.906Z,4.32
2023-04-15T07:37:35.598Z,3.92
2023-04-15T07:40:09.708Z,3.63
2023-04-15T07:42:43.690Z,3.45
2023-04-15T07:45:15.691Z,3.50
2023-04-15T07:47:51.133Z,3.90
2023-04-15T07:50:23.029Z,3.28
2023-04-15T07:52:57.545Z,3.33
2023-04-15T07:55:30.842Z,3.58
2023-04-15T07:58:02.446Z,3.90
2023-04-15T08:00:34.120Z,3.70
2023-04-15T08:03:08.693Z,3.72
2023-04-15T08:05:40.451Z,6.60
2023-04-15T08:08:12.529Z,24.83
2023-04-15T08:10:44.174Z,3.92
2023-04-15T08:13:16.387Z,3.90
2023-04-15T08:15:48.158Z,3.20
2023-04-15T08:18:22.376Z,3.90
2023-04-15T08:20:53.978Z,4.10
2023-04-15T08:23:25.802Z,4.47
2023-04-15T08:25:57.852Z,4.00
2023-04-15T08:28:29.438Z,9.90
2023-04-15T08:31:01.140Z,17.40
2023-04-15T08:33:35.387Z,3.72
2023-04-15T08:36:07.890Z,4.03
2023-04-15T08:38:39.834Z,3.47
2023-04-15T08:41:24.209Z,4.35
2023-04-15T08:44:00.692Z,3.90
2023-04-15T08:46:34.944Z,4.13
2023-04-15T08:49:15.260Z,4.13
2023-04-15T08:51:47.025Z,3.63
2023-04-15T08:54:18.764Z,3.70
2023-04-15T08:56:51.597Z,3.38
2023-04-15T08:59:24.067Z,3.97
2023-04-15T09:01:56.822Z,3.83
2023-04-15T09:04:31.683Z,3.33
2023-04-15T09:07:04.947Z,3.72
2023-04-15T09:09:37.679Z,4.90
2023-04-15T09:12:11.575Z,3.92
2023-04-15T09:14:44.919Z,4.20
2023-04-15T09:17:16.880Z,4.60
2023-04-15T09:19:51.417Z,4.00
2023-04-15T09:22:24.499Z,3.47
2023-04-15T09:24:56.072Z,3.90
2023-04-15T09:27:27.844Z,3.63
2023-04-15T09:29:59.325Z,3.70
2023-04-15T09:32:31.070Z,5.13
2023-04-15T09:35:15.753Z,4.10
2023-04-15T09:37:47.641Z,3.50
2023-04-15T09:40:34.364Z,3.00
2023-04-15T09:43:07.285Z,3.85
2023-04-15T09:45:41.418Z,2.67
2023-04-15T09:48:21.809Z,3.03
2023-04-15T09:50:57.982Z,3.10
2023-04-15T09:53:31.714Z,3.10
2023-04-15T09:56:04.447Z,2.83
2023-04-15T09:58:39.018Z,3.13
2023-04-15T10:01:11.820Z,2.97
2023-04-15T10:03:45.468Z,3.10
2023-04-15T10:06:20.156Z,3.10
2023-04-15T10:08:52.209Z,2.75
2023-04-15T10:11:25.606Z,3.40
2023-04-15T10:14:00.089Z,2.78
2023-04-15T10:16:35.844Z,2.90
2023-04-15T10:19:09.690Z,3.05
2023-04-15T10:21:45.281Z,3.28
2023-04-15T10:24:19.493Z,4.50
2023-04-15T10:26:51.592Z,2.60
2023-04-15T10:29:23.961Z,2.42
2023-04-15T10:31:56.607Z,2.08
2023-04-15T10:34:29.019Z,2.88
2023-04-15T10:37:06.874Z,2.80
2023-04-15T10:39:46.819Z,2.30
2023-04-15T10:42:20.325Z,1.90
2023-04-15T10:44:54.628Z,2.35
2023-04-15T10:47:26.280Z,2.75
2023-04-15T10:50:02.657Z,2.58
2023-04-15T10:52:37.333Z,2.33
2023-04-15T10:55:18.188Z,2.05
2023-04-15T10:57:49.875Z,2.50
2023-04-15T11:00:24.580Z,2.47
2023-04-15T11:02:58.661Z,2.83
2023-04-15T11:05:56.202Z,3.00
2023-04-15T11:09:06.086Z,3.72
2023-04-15T11:12:09.044Z,2.70
2023-04-15T11:14:44.572Z,4.03
2023-04-15T11:17:16.263Z,2.85
2023-04-15T11:19:47.967Z,2.70
2023-04-15T11:22:19.700Z,2.90
2023-04-15T11:24:54.047Z,3.10
2023-04-15T11:27:26.403Z,3.22
2023-04-15T11:29:58.075Z,3.72
2023-04-15T11:32:32.654Z,3.03
2023-04-15T11:35:04.527Z,3.25
2023-04-15T11:37:36.277Z,3.05
2023-04-15T11:40:13.024Z,3.22
2023-04-15T11:42:49.448Z,2.78
2023-04-15T11:45:21.844Z,5.03
2023-04-15T11:47:53.575Z,3.90
2023-04-15T11:50:26.798Z,4.07
2023-04-15T11:52:58.355Z,2.80
2023-04-15T11:55:31.936Z,3.10
2023-04-15T11:58:16.818Z,2.72
2023-04-15T12:00:52.749Z,2.20
2023-04-15T12:03:27.790Z,2.40
2023-04-15T12:06:19.673Z,2.15
2023-04-15T12:09:07.031Z,2.08
2023-04-15T12:11:53.107Z,1.98
2023-04-15T12:14:28.654Z,2.30
2023-04-15T12:17:02.297Z,2.50
2023-04-15T12:19:35.106Z,2.08
2023-04-15T12:22:07.974Z,2.22
2023-04-15T12:24:41.245Z,2.38
2023-04-15T12:27:19.577Z,2.90
2023-04-15T12:29:50.033Z,2.28
2023-04-15T12:32:22.193Z,2.90
2023-04-15T12:34:55.467Z,2.72
2023-04-15T12:37:26.460Z,2.80
2023-04-15T12:39:56.920Z,3.00
2023-04-15T12:42:30.340Z,2.90
2023-04-15T12:45:00.657Z,2.75
2023-04-15T12:47:31.194Z,3.35
2023-04-15T12:50:01.680Z,2.90
2023-04-15T12:52:32.071Z,2.22
2023-04-15T12:55:02.553Z,2.70
2023-04-15T12:57:35.572Z,2.60
2023-04-15T13:00:08.283Z,2.30
2023-04-15T13:02:38.882Z,2.30
2023-04-15T13:05:10.729Z,2.03
2023-04-15T13:07:41.169Z,1.63
2023-04-15T13:10:13.124Z,2.67
2023-04-15T13:12:47.024Z,2.20
2023-04-15T13:15:20.814Z,2.20
2023-04-15T13:17:51.375Z,2.00
2023-04-15T13:20:22.384Z,2.05
2023-04-15T13:22:52.739Z,1.90
2023-04-15T13:25:23.595Z,2.20
2023-04-15T13:27:57.873Z,2.20
2023-04-15T13:30:28.301Z,2.40
2023-04-15T13:32:58.823Z,2.20
2023-04-15T13:35:29.284Z,2.00
2023-04-15T13:37:59.797Z,1.85
2023-04-15T13:40:30.580Z,1.80
2023-04-15T13:43:04.435Z,1.60
2023-04-15T13:45:35.241Z,2.22
2023-04-15T13:48:05.750Z,1.45
2023-04-15T13:50:36.302Z,1.33
2023-04-15T13:53:06.689Z,1.10
2023-04-15T13:55:39.122Z,0.88
2023-04-15T13:58:12.329Z,1.20
2023-04-15T14:00:42.685Z,1.08
2023-04-15T14:03:13.188Z,1.33
2023-04-15T14:05:43.721Z,1.98
2023-04-15T14:08:14.063Z,2.10
2023-04-15T14:10:48.599Z,1.52
2023-04-15T14:13:21.962Z,1.00
2023-04-15T14:15:52.357Z,1.60
2023-04-15T14:18:22.996Z,1.58
2023-04-15T14:20:53.528Z,1.10
2023-04-15T14:23:24.041Z,1.17
2023-04-15T14:25:54.635Z,2.10
2023-04-15T14:28:27.966Z,1.85
2023-04-15T14:30:58.433Z,1.70
2023-04-15T14:33:29.010Z,1.38
2023-04-15T14:36:00.012Z,1.27
2023-04-15T14:38:30.722Z,1.38
2023-04-15T14:41:02.153Z,1.45
2023-04-15T14:43:35.255Z,1.27
2023-04-15T14:46:05.967Z,1.13
2023-04-15T14:48:36.513Z,1.00
2023-04-15T14:51:06.921Z,1.27
2023-04-15T14:53:37.327Z,1.63
2023-04-15T14:56:08.589Z,1.30
2023-04-15T14:58:41.547Z,1.55
2023-04-15T15:01:12.936Z,1.20
2023-04-15T15:03:43.827Z,1.50
2023-04-15T15:06:14.397Z,1.55
2023-04-15T15:08:44.744Z,1.40
2023-04-15T15:11:15.149Z,1.30
2023-04-15T15:13:48.113Z,1.50
2023-04-15T15:16:18.592Z,1.25
2023-04-15T15:18:48.978Z,1.35
2023-04-15T15:21:19.411Z,1.60
2023-04-15T15:23:49.900Z,1.42
2023-04-15T15:26:20.556Z,1.60
2023-04-15T15:28:53.703Z,2.30
2023-04-15T15:31:24.087Z,1.90
2023-04-15T15:33:54.496Z,1.70
2023-04-15T15:36:24.878Z,1.67
2023-04-15T15:38:55.625Z,1.30
2023-04-15T15:41:26.209Z,1.60
2023-04-15T15:43:59.280Z,1.80
2023-04-15T15:46:31.578Z,1.25
2023-04-15T15:49:02.594Z,1.85
2023-04-15T15:51:33.415Z,1.40
2023-04-15T15:54:03.989Z,1.60
2023-04-15T15:56:35.195Z,1.30
2023-04-15T15:59:08.267Z,1.25
2023-04-15T16:01:38.801Z,2.22
2023-04-15T16:04:10.504Z,1.70
2023-04-15T16:06:41.379Z,1.30
2023-04-15T16:09:11.833Z,2.00
2023-04-15T16:11:42.637Z,2.08
2023-04-15T16:14:15.815Z,1.60
2023-04-15T16:16:46.283Z,1.60
2023-04-15T16:19:16.640Z,1.30
2023-04-15T16:21:47.488Z,1.70
2023-04-15T16:24:17.975Z,2.03
2023-04-15T16:26:48.504Z,1.88
2023-04-15T16:29:21.443Z,1.60
2023-04-15T16:31:54.985Z,1.88
2023-04-15T16:34:25.518Z,2.78
2023-04-15T16:36:56.308Z,1.92
2023-04-15T16:39:27.357Z,1.70
2023-04-15T16:41:58.104Z,1.80
2023-04-15T16:44:31.199Z,1.60
2023-04-15T16:47:02.398Z,1.90
2023-04-15T16:49:35.049Z,1.90
2023-04-15T16:52:05.453Z,2.08
2023-04-15T16:54:40.757Z,2.20
2023-04-15T16:57:11.228Z,2.50
2023-04-15T16:59:44.170Z,2.63
2023-04-15T17:02:17.682Z,3.00
2023-04-15T17:04:48.151Z,3.30
2023-04-15T17:07:18.535Z,3.03
2023-04-15T17:09:48.894Z,3.00
2023-04-15T17:12:19.349Z,2.65
2023-04-15T17:14:52.505Z,3.03
2023-04-15T17:17:23.082Z,2.60
2023-04-15T17:19:53.697Z,2.10
2023-04-15T17:22:24.260Z,3.17
2023-04-15T17:24:54.914Z,2.22
2023-04-15T17:27:27.734Z,2.20
2023-04-15T17:30:01.512Z,2.80
2023-04-15T17:32:51.960Z,2.03
2023-04-15T17:35:42.684Z,2.10
2023-04-15T17:38:33.173Z,2.53
2023-04-15T17:41:23.525Z,1.67
2023-04-15T17:44:13.781Z,1.63
2023-04-15T17:47:06.848Z,1.60
2023-04-15T17:49:57.265Z,1.42
2023-04-15T17:52:48.558Z,1.60
2023-04-15T17:55:39.744Z,1.30
2023-04-15T17:58:30.285Z,1.20
2023-04-15T18:01:22.509Z,1.10
2023-04-15T18:04:16.001Z,1.08
2023-04-15T18:07:07.629Z,1.20
2023-04-15T18:10:00.640Z,2.20
2023-04-15T18:12:51.191Z,2.60
2023-04-15T18:15:41.637Z,1.50
2023-04-15T18:18:32.105Z,1.60
2023-04-15T18:21:06.468Z,1.90
2023-04-15T18:23:37.027Z,1.83
2023-04-15T18:26:07.512Z,1.67
2023-04-15T18:28:38.081Z,1.60
2023-04-15T18:31:09.001Z,2.78
2023-04-15T18:33:39.555Z,1.90
2023-04-15T18:36:13.201Z,1.75
2023-04-15T18:38:43.926Z,1.77
2023-04-15T18:41:14.287Z,1.67
2023-04-15T18:43:44.685Z,1.98
2023-04-15T18:46:15.151Z,2.00
2023-04-15T18:48:45.710Z,1.75
2023-04-15T18:51:18.666Z,2.28
2023-04-15T18:53:49.323Z,1.40
2023-04-15T18:56:19.738Z,1.60
2023-04-15T18:59:27.855Z,1.80
2023-04-15T19:01:40.861Z,1.95
2023-04-15T19:04:11.825Z,1.88
2023-04-15T19:06:44.863Z,2.15
2023-04-15T19:09:15.472Z,1.98
2023-04-15T19:11:46.483Z,1.85
2023-04-15T19:14:16.989Z,1.98
2023-04-15T19:16:47.502Z,20.00
2023-04-15T19:19:18.094Z,2.40
2023-04-15T19:21:51.155Z,2.35
2023-04-15T19:24:22.486Z,2.60
2023-04-15T19:26:53.322Z,2.60
2023-04-15T19:29:23.722Z,3.00
2023-04-15T19:31:54.464Z,3.35
2023-04-15T19:34:25.191Z,3.90
2023-04-15T19:36:59.334Z,3.95
2023-04-15T19:39:30.062Z,4.20
2023-04-15T19:42:00.448Z,4.47
2023-04-15T19:44:30.783Z,4.25
2023-04-15T19:47:01.146Z,4.38
2023-04-15T19:49:31.571Z,4.45
2023-04-15T19:52:04.530Z,4.88
2023-04-15T19:54:35.323Z,4.90
2023-04-15T19:57:05.690Z,5.43
2023-04-15T19:59:36.134Z,4.65
2023-04-15T20:02:06.942Z,5.45
2023-04-15T20:04:37.484Z,5.03
2023-04-15T20:07:10.769Z,5.30
2023-04-15T20:09:41.118Z,5.25
2023-04-15T20:12:50.271Z,4.72
2023-04-15T20:15:01.857Z,5.20
2023-04-15T20:17:35.910Z,5.20
2023-04-15T20:20:08.236Z,5.72
2023-04-15T20:22:41.281Z,5.57
2023-04-15T20:25:12.748Z,6.47
2023-04-15T20:27:43.241Z,6.43
2023-04-15T20:30:14.601Z,6.00
2023-04-15T20:32:45.155Z,5.63
2023-04-15T20:35:15.714Z,6.18
2023-04-15T20:37:49.474Z,6.18
2023-04-15T20:40:20.383Z,6.15
2023-04-15T20:42:51.113Z,5.97
2023-04-15T20:45:21.657Z,5.32
2023-04-15T20:47:52.030Z,5.97
2023-04-15T20:50:22.571Z,6.82
2023-04-15T20:52:55.574Z,6.57
2023-04-15T20:55:26.292Z,6.35
2023-04-15T20:57:57.110Z,6.60
2023-04-15T21:00:27.607Z,6.30
2023-04-15T21:02:58.266Z,6.28
2023-04-15T21:05:28.890Z,6.63
2023-04-15T21:08:01.806Z,6.57
2023-04-15T21:10:35.453Z,6.88
2023-04-15T21:13:06.922Z,6.70
2023-04-15T21:15:38.386Z,7.07
2023-04-15T21:18:08.974Z,7.43
2023-04-15T21:20:39.482Z,7.22
2023-04-15T21:23:13.123Z,7.65
2023-04-15T21:25:43.588Z,7.32
2023-04-15T21:28:13.967Z,7.35
2023-04-15T21:30:45.905Z,7.93
2023-04-15T21:33:16.530Z,8.20
2023-04-15T21:35:46.867Z,7.78
2023-04-15T21:38:21.322Z,8.57
2023-04-15T21:40:53.580Z,8.43
2023-04-15T21:43:25.825Z,8.60
2023-04-15T21:46:21.125Z,8.63
2023-04-15T21:48:48.957Z,8.32
2023-04-15T21:51:19.517Z,8.10
2023-04-15T21:53:52.827Z,8.77
2023-04-15T21:56:24.493Z,9.38
2023-04-15T21:58:59.325Z,9.00
2023-04-15T22:01:30.062Z,9.43
2023-04-15T22:04:00.898Z,9.68
2023-04-15T22:06:31.885Z,9.50
2023-04-15T22:09:05.197Z,9.80
2023-04-15T22:11:35.961Z,10.32
2023-04-15T22:14:06.679Z,9.77
2023-04-15T22:16:37.133Z,10.57
2023-04-15T22:19:07.951Z,11.27
2023-04-15T22:21:38.711Z,11.45
2023-04-15T22:24:31.611Z,11.38
2023-04-15T22:27:02.381Z,11.20
2023-04-15T22:29:33.103Z,11.55
2023-04-15T22:32:03.732Z,11.60
2023-04-15T22:34:34.189Z,12.27
2023-04-15T22:37:04.587Z,11.90
2023-04-15T22:39:37.715Z,11.77
2023-04-15T22:42:08.079Z,12.13
2023-04-15T22:44:38.543Z,12.88
2023-04-15T22:47:09.120Z,12.38
2023-04-15T22:49:39.913Z,12.77
2023-04-15T22:52:12.432Z,11.38
2023-04-15T22:54:53.510Z,11.93
2023-04-15T22:57:23.975Z,11.68
2023-04-15T22:59:54.322Z,11.50
2023-04-15T23:02:24.940Z,12.75
2023-04-15T23:04:55.588Z,12.57
2023-04-15T23:07:26.144Z,13.13
2023-04-15T23:10:01.229Z,12.48
2023-04-15T23:12:31.679Z,11.85
2023-04-15T23:15:02.250Z,12.20
2023-04-15T23:17:32.710Z,11.85
2023-04-15T23:20:03.235Z,11.50
2023-04-15T23:22:37.570Z,11.40
2023-04-15T23:25:12.250Z,10.02
2023-04-15T23:27:42.606Z,11.38
2023-04-15T23:30:13.578Z,11.25
2023-04-15T23:32:44.085Z,11.15
2023-04-15T23:35:14.592Z,10.73
2023-04-15T23:37:44.936Z,10.95
2023-04-15T23:40:18.553Z,10.85
2023-04-15T23:42:49.085Z,12.20
2023-04-15T23:45:19.545Z,11.45
2023-04-15T23:47:49.880Z,11.10
2023-04-15T23:50:20.655Z,10.95
2023-04-15T23:52:51.019Z,12.45
2023-04-15T23:55:24.371Z,12.27
2023-04-15T23:57:54.669Z,11.98
